Decoded Metar for KNUW (WHIDBEY ISLAND in WA, USA) (IATA:NUW) | Meteo·Mobile Aviation Weather
aviador You're here:

KNUW Decoded Metar

WHIDBEY ISLAND in WA, USA
Report Time2018-08-18 04:56:00
UTC Time2018-08-18 05:07:51
Flight Rules vfr VFR
Wind220° at 03 kt
W.Decomp.*RWY 25: 2.0 kt HW 2.2 kt LCW
RWY 14: 1.4 kt HW 2.6 kt RCW
W.Rank220° ranks 13
Current wind is below 220° avg. (6.9)
Visibility9999 m
Phenomena:N/A
Clouds:N/A
Expected CloudBase > 800 ft AGL from Temp-Dew spread
CeilingNone
Temp13°C (ISA -2)
Dew Point11°C (88% RH)
AAT12.3°C
QNH1025 hPa
Density Alt-410 ft
Elevation46 ft
Report Wrong Elevation
Raw Report
KNUW 180456Z 22003KT 7SM CLR 13/11 A3026 RMK AO2 SLP247 T01330106
$=

Extra information for KNUW:More info

Metar Taf Metar & Taf Last 4 Metars F.Rules Stats Wind Profile Meteogram Temp Stats Airport Information Weather charts Add Link Nearby VenuesMetar ALERT Operation Metar Decoded Social comments

AIRNAV info for KNUW